createdAt,value
2017-06-08T00:00:47.242Z,1009.19
2017-06-08T00:01:47.223Z,1009.21
2017-06-08T00:02:47.205Z,1009.19
2017-06-08T00:03:47.192Z,1009.16
2017-06-08T00:04:47.175Z,1009.15
2017-06-08T00:05:47.158Z,1009.15
2017-06-08T00:06:47.138Z,1009.15
2017-06-08T00:07:47.123Z,1009.17
2017-06-08T00:08:47.097Z,1009.12
2017-06-08T00:09:47.084Z,1009.11
2017-06-08T00:10:47.062Z,1009.12
2017-06-08T00:11:47.044Z,1009.16
2017-06-08T00:12:47.034Z,1009.19
2017-06-08T00:13:47.012Z,1009.15
2017-06-08T00:14:46.993Z,1009.15
2017-06-08T00:15:46.968Z,1009.12
2017-06-08T00:16:46.959Z,1009.1
2017-06-08T00:17:46.934Z,1009.09
2017-06-08T00:18:46.920Z,1009.09
2017-06-08T00:19:46.949Z,1009.07
2017-06-08T00:20:46.877Z,1009.12
2017-06-08T00:21:46.873Z,1009.11
2017-06-08T00:22:46.842Z,1009.05
2017-06-08T00:23:46.821Z,1009.05
2017-06-08T00:24:46.805Z,1009.03
2017-06-08T00:25:46.790Z,1009.01
2017-06-08T00:26:46.771Z,1009.08
2017-06-08T00:27:46.751Z,1009.03
2017-06-08T00:28:46.730Z,1009.02
2017-06-08T00:29:46.714Z,1009.04
2017-06-08T00:30:46.699Z,1009.04
2017-06-08T00:31:46.682Z,1009.04
2017-06-08T00:32:46.660Z,1009
2017-06-08T00:33:46.641Z,1009.04
2017-06-08T00:34:46.630Z,1009.02
2017-06-08T00:35:46.610Z,1009.09
2017-06-08T00:36:46.596Z,1009.06
2017-06-08T00:37:46.571Z,1009.06
2017-06-08T00:38:46.551Z,1009.07
2017-06-08T00:39:46.532Z,1009.08
2017-06-08T00:40:46.520Z,1009.14
2017-06-08T00:41:46.501Z,1009.12
2017-06-08T00:42:46.477Z,1009.12
2017-06-08T00:43:46.459Z,1009.13
2017-06-08T00:44:46.450Z,1009.12
2017-06-08T00:45:46.432Z,1009.14
2017-06-08T00:46:46.404Z,1009.13
2017-06-08T00:47:46.389Z,1009.15
2017-06-08T00:48:46.369Z,1009.15
2017-06-08T00:49:46.354Z,1009.17
2017-06-08T00:50:46.333Z,1009.18
2017-06-08T00:51:46.321Z,1009.18
2017-06-08T00:52:46.297Z,1009.23
2017-06-08T00:53:46.278Z,1009.13
2017-06-08T00:54:46.260Z,1009.14
2017-06-08T00:55:46.243Z,1009.11
2017-06-08T00:56:46.226Z,1009.17
2017-06-08T00:57:46.211Z,1009.1
2017-06-08T00:58:46.188Z,1009.08
2017-06-08T00:59:46.169Z,1009.11
2017-06-08T01:00:46.150Z,1009.14
2017-06-08T01:01:46.138Z,1009.11
2017-06-08T01:02:46.124Z,1009.18
2017-06-08T01:03:46.099Z,1009.11
2017-06-08T01:04:46.081Z,1009.12
2017-06-08T01:05:46.061Z,1009.12
2017-06-08T01:06:46.046Z,1009.14
2017-06-08T01:07:46.029Z,1009.15
2017-06-08T01:08:46.014Z,1009.15
2017-06-08T01:09:45.989Z,1009.18
2017-06-08T01:10:45.971Z,1009.18
2017-06-08T01:11:45.957Z,1009.14
2017-06-08T01:12:45.933Z,1009.17
2017-06-08T01:13:45.920Z,1009.21
2017-06-08T01:14:45.902Z,1009.2
2017-06-08T01:15:45.883Z,1009.2
2017-06-08T01:16:45.871Z,1009.19
2017-06-08T01:17:45.847Z,1009.12
2017-06-08T01:18:45.830Z,1009.14
2017-06-08T01:19:45.812Z,1009.2
2017-06-08T01:20:45.793Z,1009.17
2017-06-08T01:21:45.772Z,1009.2
2017-06-08T01:22:45.761Z,1009.2
2017-06-08T01:23:45.738Z,1009.18
2017-06-08T01:24:45.722Z,1009.18
2017-06-08T01:25:45.702Z,1009.17
2017-06-08T01:26:45.692Z,1009.15
2017-06-08T01:27:45.666Z,1009.15
2017-06-08T01:28:45.646Z,1009.17
2017-06-08T01:29:45.627Z,1009.16
2017-06-08T01:30:45.614Z,1009.15
2017-06-08T01:31:45.608Z,1009.13
2017-06-08T01:32:45.579Z,1009.14
2017-06-08T01:33:45.563Z,1009.15
2017-06-08T01:34:45.540Z,1009.11
2017-06-08T01:35:45.525Z,1009.1
2017-06-08T01:36:45.506Z,1009.14
2017-06-08T01:37:45.491Z,1009.11
2017-06-08T01:38:45.471Z,1009.14
2017-06-08T01:39:45.448Z,1009.13
2017-06-08T01:40:45.431Z,1009.16
2017-06-08T01:41:45.412Z,1009.14
2017-06-08T01:42:45.396Z,1009.17
2017-06-08T01:43:45.383Z,1009.16
2017-06-08T01:44:45.361Z,1009.18
2017-06-08T01:45:45.341Z,1009.18
2017-06-08T01:46:45.321Z,1009.17
2017-06-08T01:47:45.303Z,1009.24
2017-06-08T01:48:45.292Z,1009.22
2017-06-08T01:49:45.271Z,1009.22
2017-06-08T01:50:45.253Z,1009.21
2017-06-08T01:51:45.232Z,1009.23
2017-06-08T01:52:45.212Z,1009.2
2017-06-08T01:53:45.199Z,1009.23
2017-06-08T01:54:45.176Z,1009.28
2017-06-08T01:55:45.162Z,1009.25
2017-06-08T01:56:45.153Z,1009.25
2017-06-08T01:57:45.128Z,1009.27
2017-06-08T01:58:45.108Z,1009.31
2017-06-08T01:59:45.091Z,1009.27
2017-06-08T02:00:45.071Z,1009.26
2017-06-08T02:01:45.053Z,1009.27
2017-06-08T02:02:45.031Z,1009.29
2017-06-08T02:03:45.021Z,1009.27
2017-06-08T02:04:44.997Z,1009.29
2017-06-08T02:05:44.975Z,1009.25
2017-06-08T02:06:44.957Z,1009.26
2017-06-08T02:07:44.943Z,1009.23
2017-06-08T02:08:44.921Z,1009.23
2017-06-08T02:09:44.903Z,1009.27
2017-06-08T02:10:44.888Z,1009.31
2017-06-08T02:11:44.873Z,1009.33
2017-06-08T02:12:44.851Z,1009.27
2017-06-08T02:13:44.829Z,1009.28
2017-06-08T02:14:44.811Z,1009.27
2017-06-08T02:15:44.802Z,1009.33
2017-06-08T02:16:44.775Z,1009.35
2017-06-08T02:17:44.767Z,1009.34
2017-06-08T02:18:44.741Z,1009.41
2017-06-08T02:19:44.722Z,1009.38
2017-06-08T02:20:44.703Z,1009.43
2017-06-08T02:21:44.693Z,1009.41
2017-06-08T02:22:44.674Z,1009.4
2017-06-08T02:23:44.653Z,1009.4
2017-06-08T02:24:44.631Z,1009.43
2017-06-08T02:25:44.611Z,1009.39
2017-06-08T02:26:44.597Z,1009.42
2017-06-08T02:27:44.579Z,1009.45
2017-06-08T02:28:44.557Z,1009.38
2017-06-08T02:29:44.543Z,1009.42
2017-06-08T02:30:44.521Z,1009.44
2017-06-08T02:31:44.502Z,1009.44
2017-06-08T02:32:44.485Z,1009.47
2017-06-08T02:33:44.471Z,1009.44
2017-06-08T02:34:44.452Z,1009.43
2017-06-08T02:35:44.430Z,1009.39
2017-06-08T02:36:44.414Z,1009.44
2017-06-08T02:37:44.395Z,1009.44
2017-06-08T02:38:44.381Z,1009.5
2017-06-08T02:39:44.362Z,1009.49
2017-06-08T02:40:44.338Z,1009.51
2017-06-08T02:41:44.323Z,1009.5
2017-06-08T02:42:44.313Z,1009.44
2017-06-08T02:43:44.291Z,1009.47
2017-06-08T02:44:44.273Z,1009.46
2017-06-08T02:45:44.251Z,1009.46
2017-06-08T02:46:44.231Z,1009.48
2017-06-08T02:47:44.214Z,1009.48
2017-06-08T02:48:44.193Z,1009.45
2017-06-08T02:49:44.175Z,1009.43
2017-06-08T02:50:44.164Z,1009.43
2017-06-08T02:51:44.137Z,1009.4
2017-06-08T02:52:44.122Z,1009.44
2017-06-08T02:53:44.102Z,1009.45
2017-06-08T02:54:44.094Z,1009.42
2017-06-08T02:55:44.069Z,1009.46
2017-06-08T02:56:44.053Z,1009.4
2017-06-08T02:57:44.032Z,1009.43
2017-06-08T02:58:44.010Z,1009.4
2017-06-08T02:59:43.996Z,1009.43
2017-06-08T03:00:43.980Z,1009.41
2017-06-08T03:01:43.961Z,1009.42
2017-06-08T03:02:43.943Z,1009.41
2017-06-08T03:03:43.921Z,1009.42
2017-06-08T03:04:43.914Z,1009.45
2017-06-08T03:05:43.888Z,1009.45
2017-06-08T03:06:43.871Z,1009.43
2017-06-08T03:07:43.849Z,1009.38
2017-06-08T03:08:43.831Z,1009.42
2017-06-08T03:09:43.814Z,1009.41
2017-06-08T03:10:43.797Z,1009.39
2017-06-08T03:11:43.783Z,1009.41
2017-06-08T03:12:43.834Z,1009.41
2017-06-08T03:13:43.740Z,1009.4
2017-06-08T03:14:43.800Z,1009.41
2017-06-08T03:15:43.703Z,1009.39
2017-06-08T03:16:43.691Z,1009.4
2017-06-08T03:17:43.677Z,1009.39
2017-06-08T03:18:43.649Z,1009.39
2017-06-08T03:19:43.631Z,1009.39
2017-06-08T03:20:43.624Z,1009.38
2017-06-08T03:21:43.600Z,1009.38
2017-06-08T03:22:43.581Z,1009.36
2017-06-08T03:23:43.563Z,1009.39
2017-06-08T03:24:43.543Z,1009.36
2017-06-08T03:25:43.521Z,1009.37
2017-06-08T03:26:43.508Z,1009.35
2017-06-08T03:27:43.485Z,1009.37
2017-06-08T03:28:43.546Z,1009.37
2017-06-08T03:29:43.478Z,1009.39
2017-06-08T03:30:43.533Z,1009.37
2017-06-08T03:31:43.415Z,1009.43
2017-06-08T03:32:43.531Z,1009.41
2017-06-08T03:33:43.381Z,1009.38
2017-06-08T03:34:43.371Z,1009.39
2017-06-08T03:35:43.352Z,1009.38
2017-06-08T03:36:43.332Z,1009.41
2017-06-08T03:37:43.313Z,1009.41
2017-06-08T03:38:43.292Z,1009.42
2017-06-08T03:39:43.271Z,1009.39
2017-06-08T03:40:43.414Z,1009.41
2017-06-08T03:41:43.237Z,1009.37
2017-06-08T03:42:43.336Z,1009.39
2017-06-08T03:43:43.221Z,1009.37
2017-06-08T03:44:43.198Z,1009.38
2017-06-08T03:45:43.163Z,1009.35
2017-06-08T03:46:43.271Z,1009.32
2017-06-08T03:47:43.134Z,1009.32
2017-06-08T03:48:43.132Z,1009.31
2017-06-08T03:49:43.091Z,1009.34
2017-06-08T03:50:43.143Z,1009.34
2017-06-08T03:51:43.055Z,1009.29
2017-06-08T03:52:43.090Z,1009.34
2017-06-08T03:53:43.034Z,1009.34
2017-06-08T03:54:43.006Z,1009.35
2017-06-08T03:55:42.989Z,1009.35
2017-06-08T03:56:43.007Z,1009.36
2017-06-08T03:57:42.952Z,1009.38
2017-06-08T03:58:42.942Z,1009.33
2017-06-08T03:59:42.914Z,1009.35
2017-06-08T04:00:42.901Z,1009.38
2017-06-08T04:01:42.878Z,1009.37
2017-06-08T04:02:42.862Z,1009.41
2017-06-08T04:03:42.849Z,1009.39
2017-06-08T04:04:42.831Z,1009.41
2017-06-08T04:05:42.811Z,1009.45
2017-06-08T04:06:42.796Z,1009.42
2017-06-08T04:07:42.770Z,1009.37
2017-06-08T04:08:42.754Z,1009.38
2017-06-08T04:09:42.741Z,1009.42
2017-06-08T04:10:42.721Z,1009.42
2017-06-08T04:11:42.698Z,1009.42
2017-06-08T04:12:42.682Z,1009.49
2017-06-08T04:13:42.669Z,1009.54
2017-06-08T04:14:42.642Z,1009.46
2017-06-08T04:15:42.627Z,1009.46
2017-06-08T04:16:42.610Z,1009.49
2017-06-08T04:17:42.590Z,1009.43
2017-06-08T04:18:42.580Z,1009.51
2017-06-08T04:19:42.556Z,1009.44
2017-06-08T04:20:42.540Z,1009.5
2017-06-08T04:21:42.522Z,1009.47
2017-06-08T04:22:42.500Z,1009.46
2017-06-08T04:23:42.492Z,1009.51
2017-06-08T04:24:42.461Z,1009.45
2017-06-08T04:25:42.454Z,1009.53
2017-06-08T04:26:42.431Z,1009.54
2017-06-08T04:27:42.408Z,1009.57
2017-06-08T04:28:42.393Z,1009.53
2017-06-08T04:29:42.373Z,1009.58
2017-06-08T04:30:42.360Z,1009.59
2017-06-08T04:31:42.340Z,1009.54
2017-06-08T04:32:42.324Z,1009.52
2017-06-08T04:33:42.299Z,1009.47
2017-06-08T04:34:42.282Z,1009.54
2017-06-08T04:35:42.272Z,1009.53
2017-06-08T04:36:42.249Z,1009.58
2017-06-08T04:37:42.231Z,1009.55
2017-06-08T04:38:42.211Z,1009.56
2017-06-08T04:39:42.190Z,1009.53
2017-06-08T04:40:42.170Z,1009.56
2017-06-08T04:41:42.155Z,1009.55
2017-06-08T04:42:42.143Z,1009.56
2017-06-08T04:43:42.120Z,1009.58
2017-06-08T04:44:42.101Z,1009.63
2017-06-08T04:45:42.081Z,1009.56
2017-06-08T04:46:42.061Z,1009.62
2017-06-08T04:47:42.050Z,1009.63
2017-06-08T04:48:42.026Z,1009.59
2017-06-08T04:49:42.010Z,1009.61
2017-06-08T04:50:42.039Z,1009.65
2017-06-08T04:51:41.970Z,1009.64
2017-06-08T04:52:41.949Z,1009.65
2017-06-08T04:53:41.933Z,1009.7
2017-06-08T04:54:41.919Z,1009.66
2017-06-08T04:55:41.903Z,1009.65
2017-06-08T04:56:41.880Z,1009.68
2017-06-08T04:57:41.860Z,1009.66
2017-06-08T04:58:41.841Z,1009.7
2017-06-08T04:59:41.828Z,1009.74
2017-06-08T05:00:41.807Z,1009.71
2017-06-08T05:01:41.790Z,1009.73
2017-06-08T05:02:41.773Z,1009.74
2017-06-08T05:03:41.751Z,1009.73
2017-06-08T05:04:41.743Z,1009.68
2017-06-08T05:05:41.714Z,1009.7
2017-06-08T05:06:41.699Z,1009.7
2017-06-08T05:07:41.683Z,1009.72
2017-06-08T05:08:41.660Z,1009.74
2017-06-08T05:09:41.637Z,1009.71
2017-06-08T05:10:41.622Z,1009.76
2017-06-08T05:11:41.610Z,1009.82
2017-06-08T05:12:41.580Z,1009.78
2017-06-08T05:13:41.568Z,1009.85
2017-06-08T05:14:41.547Z,1009.85
2017-06-08T05:15:41.532Z,1009.81
2017-06-08T05:16:41.510Z,1009.8
2017-06-08T05:17:41.489Z,1009.79
2017-06-08T05:18:41.470Z,1009.8
2017-06-08T05:19:41.457Z,1009.81
2017-06-08T05:20:41.439Z,1009.82
2017-06-08T05:21:41.420Z,1009.87
2017-06-08T05:22:41.400Z,1009.83
2017-06-08T05:23:41.382Z,1009.85
2017-06-08T05:24:41.368Z,1009.82
2017-06-08T05:25:41.345Z,1009.83
2017-06-08T05:26:41.329Z,1009.82
2017-06-08T05:27:41.307Z,1009.86
2017-06-08T05:28:41.293Z,1009.86
2017-06-08T05:29:41.272Z,1009.87
2017-06-08T05:30:41.256Z,1009.87
2017-06-08T05:31:41.234Z,1009.88
2017-06-08T05:32:41.220Z,1009.89
2017-06-08T05:33:41.197Z,1009.84
2017-06-08T05:34:41.179Z,1009.87
2017-06-08T05:35:41.163Z,1009.86
2017-06-08T05:36:41.150Z,1009.82
2017-06-08T05:37:41.126Z,1009.83
2017-06-08T05:38:41.105Z,1009.86
2017-06-08T05:39:41.089Z,1009.8
2017-06-08T05:40:41.069Z,1009.8
2017-06-08T05:41:41.053Z,1009.79
2017-06-08T05:42:41.039Z,1009.76
2017-06-08T05:43:41.014Z,1009.71
2017-06-08T05:44:41.000Z,1009.75
2017-06-08T05:45:40.977Z,1009.73
2017-06-08T05:46:40.961Z,1009.74
2017-06-08T05:47:40.941Z,1009.73
2017-06-08T05:48:40.946Z,1009.67
2017-06-08T05:49:40.912Z,1009.67
2017-06-08T05:50:40.896Z,1009.64
2017-06-08T05:51:40.875Z,1009.66
2017-06-08T05:52:40.852Z,1009.65
2017-06-08T05:53:40.837Z,1009.67
2017-06-08T05:54:40.820Z,1009.7
2017-06-08T05:55:40.802Z,1009.7
2017-06-08T05:56:40.781Z,1009.7
2017-06-08T05:57:40.762Z,1009.68
2017-06-08T05:58:40.743Z,1009.68
2017-06-08T05:59:40.731Z,1009.71
2017-06-08T06:00:40.708Z,1009.7
2017-06-08T06:01:40.691Z,1009.71
2017-06-08T06:02:40.675Z,1009.7
2017-06-08T06:03:40.654Z,1009.67
2017-06-08T06:04:40.640Z,1009.7
2017-06-08T06:05:40.619Z,1009.67
2017-06-08T06:06:40.601Z,1009.63
2017-06-08T06:07:40.589Z,1009.63
2017-06-08T06:08:40.567Z,1009.61
2017-06-08T06:09:40.550Z,1009.63
2017-06-08T06:10:40.539Z,1009.59
2017-06-08T06:11:40.520Z,1009.58
2017-06-08T06:12:40.500Z,1009.56
2017-06-08T06:13:40.479Z,1009.59
2017-06-08T06:14:40.460Z,1009.56
2017-06-08T06:15:40.448Z,1009.59
2017-06-08T06:16:40.428Z,1009.54
2017-06-08T06:17:40.412Z,1009.57
2017-06-08T06:18:40.391Z,1009.57
2017-06-08T06:19:40.380Z,1009.56
2017-06-08T06:20:40.361Z,1009.53
2017-06-08T06:21:40.340Z,1009.51
2017-06-08T06:22:40.361Z,1009.53
2017-06-08T06:23:40.311Z,1009.58
2017-06-08T06:24:40.290Z,1009.54
2017-06-08T06:25:40.270Z,1009.55
2017-06-08T06:26:40.260Z,1009.52
2017-06-08T06:27:40.240Z,1009.53
2017-06-08T06:28:40.219Z,1009.48
2017-06-08T06:29:40.200Z,1009.48
2017-06-08T06:30:40.190Z,1009.48
2017-06-08T06:31:40.170Z,1009.49
2017-06-08T06:32:40.153Z,1009.48
2017-06-08T06:33:40.133Z,1009.46
2017-06-08T06:34:40.115Z,1009.59
2017-06-08T06:35:40.101Z,1009.48
2017-06-08T06:36:40.080Z,1009.51
2017-06-08T06:37:40.065Z,1009.57
2017-06-08T06:38:40.052Z,1009.56
2017-06-08T06:39:40.033Z,1009.55
2017-06-08T06:40:40.011Z,1009.56
2017-06-08T06:41:39.996Z,1009.6
2017-06-08T06:42:39.977Z,1009.63
2017-06-08T06:43:39.974Z,1009.66
2017-06-08T06:44:39.943Z,1009.64
2017-06-08T06:45:39.931Z,1009.66
2017-06-08T06:46:39.923Z,1009.58
2017-06-08T06:47:39.893Z,1009.56
2017-06-08T06:48:39.877Z,1009.61
2017-06-08T06:49:39.862Z,1009.61
2017-06-08T06:50:39.851Z,1009.62
2017-06-08T06:51:39.830Z,1009.61
2017-06-08T06:52:39.809Z,1009.58
2017-06-08T06:53:39.795Z,1009.55
2017-06-08T06:54:39.782Z,1009.53
2017-06-08T06:55:39.760Z,1009.52
2017-06-08T06:56:39.741Z,1009.47
2017-06-08T06:57:39.724Z,1009.51
2017-06-08T06:58:39.712Z,1009.49
2017-06-08T06:59:39.693Z,1009.49
2017-06-08T07:00:39.681Z,1009.46
2017-06-08T07:01:39.661Z,1009.46
2017-06-08T07:02:39.643Z,1009.5
2017-06-08T07:03:39.621Z,1009.53
2017-06-08T07:04:39.610Z,1009.54
2017-06-08T07:05:39.590Z,1009.47
2017-06-08T07:06:39.570Z,1009.49
2017-06-08T07:07:39.560Z,1009.45
2017-06-08T07:08:39.541Z,1009.47
2017-06-08T07:09:39.521Z,1009.47
2017-06-08T07:10:39.504Z,1009.47
2017-06-08T07:11:39.490Z,1009.45
2017-06-08T07:12:39.488Z,1009.42
2017-06-08T07:13:39.453Z,1009.46
2017-06-08T07:14:39.434Z,1009.5
2017-06-08T07:15:39.422Z,1009.46
2017-06-08T07:16:39.403Z,1009.47
2017-06-08T07:17:39.385Z,1009.44
2017-06-08T07:18:39.370Z,1009.45
2017-06-08T07:19:39.352Z,1009.49
2017-06-08T07:20:39.347Z,1009.44
2017-06-08T07:21:39.325Z,1009.5
2017-06-08T07:22:39.305Z,1009.51
2017-06-08T07:23:39.284Z,1009.49
2017-06-08T07:24:39.270Z,1009.53
2017-06-08T07:25:39.254Z,1009.5
2017-06-08T07:26:39.236Z,1009.54
2017-06-08T07:27:39.218Z,1009.53
2017-06-08T07:28:39.201Z,1009.54
2017-06-08T07:29:39.185Z,1009.61
2017-06-08T07:30:39.171Z,1009.56
2017-06-08T07:31:39.150Z,1009.56
2017-06-08T07:32:39.133Z,1009.56
2017-06-08T07:33:39.126Z,1009.62
2017-06-08T07:34:39.102Z,1009.59
2017-06-08T07:35:39.093Z,1009.6
2017-06-08T07:36:39.071Z,1009.66
2017-06-08T07:37:39.054Z,1009.64
2017-06-08T07:38:39.041Z,1009.64
2017-06-08T07:39:39.018Z,1009.66
2017-06-08T07:40:39.002Z,1009.72
2017-06-08T07:41:38.991Z,1009.66
2017-06-08T07:42:38.969Z,1009.69
2017-06-08T07:43:38.955Z,1009.67
2017-06-08T07:44:38.938Z,1009.68
2017-06-08T07:45:38.921Z,1009.65
2017-06-08T07:46:38.903Z,1009.67
2017-06-08T07:47:38.888Z,1009.67
2017-06-08T07:48:38.870Z,1009.68
2017-06-08T07:49:38.853Z,1009.67
2017-06-08T07:50:38.841Z,1009.65
2017-06-08T07:51:38.821Z,1009.67
2017-06-08T07:52:38.806Z,1009.67
2017-06-08T07:53:38.792Z,1009.68
2017-06-08T07:54:38.771Z,1009.68
2017-06-08T07:55:38.771Z,1009.7
2017-06-08T07:56:38.738Z,1009.66
2017-06-08T07:57:38.731Z,1009.66
2017-06-08T07:58:38.713Z,1009.72
2017-06-08T07:59:38.695Z,1009.65
2017-06-08T08:00:38.682Z,1009.67
2017-06-08T08:01:38.664Z,1009.63
2017-06-08T08:02:38.644Z,1009.64
2017-06-08T08:03:38.631Z,1009.68
2017-06-08T08:04:38.612Z,1009.65
2017-06-08T08:05:38.600Z,1009.68
2017-06-08T08:06:38.584Z,1009.67
2017-06-08T08:07:38.561Z,1009.62
2017-06-08T08:08:38.553Z,1009.65
2017-06-08T08:09:38.533Z,1009.68
2017-06-08T08:10:38.513Z,1009.66
2017-06-08T08:11:38.498Z,1009.65
2017-06-08T08:12:38.486Z,1009.68
2017-06-08T08:13:38.466Z,1009.66
2017-06-08T08:14:38.452Z,1009.66
2017-06-08T08:15:38.433Z,1009.63
2017-06-08T08:16:38.426Z,1009.59
2017-06-08T08:17:38.403Z,1009.56
2017-06-08T08:18:38.381Z,1009.48
2017-06-08T08:19:38.372Z,1009.49
2017-06-08T08:20:38.362Z,1009.43
2017-06-08T08:21:38.340Z,1009.37
2017-06-08T08:22:38.322Z,1009.37
2017-06-08T08:23:38.315Z,1009.38
2017-06-08T08:24:38.291Z,1009.33
2017-06-08T08:25:38.271Z,1009.35
2017-06-08T08:26:38.260Z,1009.31
2017-06-08T08:27:38.241Z,1009.37
2017-06-08T08:28:38.225Z,1009.36
2017-06-08T08:29:38.212Z,1009.35
2017-06-08T08:30:38.200Z,1009.34
2017-06-08T08:31:38.183Z,1009.34
2017-06-08T08:32:38.162Z,1009.36
2017-06-08T08:33:38.162Z,1009.37
2017-06-08T08:34:38.131Z,1009.3
2017-06-08T08:35:38.140Z,1009.29
2017-06-08T08:36:38.102Z,1009.3
2017-06-08T08:37:38.089Z,1009.36
2017-06-08T08:38:38.073Z,1009.37
2017-06-08T08:39:38.062Z,1009.36
2017-06-08T08:40:38.039Z,1009.33
2017-06-08T08:41:38.029Z,1009.28
2017-06-08T08:42:38.011Z,1009.31
2017-06-08T08:43:37.993Z,1009.29
2017-06-08T08:44:37.978Z,1009.36
2017-06-08T08:45:37.966Z,1009.33
2017-06-08T08:46:37.953Z,1009.3
2017-06-08T08:47:37.935Z,1009.31
2017-06-08T08:48:37.922Z,1009.26
2017-06-08T08:49:37.906Z,1009.28
2017-06-08T08:50:37.892Z,1009.33
2017-06-08T08:51:37.877Z,1009.31
2017-06-08T08:52:37.869Z,1009.35
2017-06-08T08:53:37.852Z,1009.29
2017-06-08T08:54:37.837Z,1009.32
2017-06-08T08:55:37.824Z,1009.33
2017-06-08T08:56:37.805Z,1009.36
2017-06-08T08:57:37.804Z,1009.34
2017-06-08T08:58:37.782Z,1009.34
2017-06-08T08:59:37.769Z,1009.4
2017-06-08T09:00:37.753Z,1009.38
2017-06-08T09:01:37.744Z,1009.38
2017-06-08T09:02:37.730Z,1009.36
2017-06-08T09:03:37.714Z,1009.36
2017-06-08T09:04:37.699Z,1009.4
2017-06-08T09:05:37.689Z,1009.37
2017-06-08T09:06:37.672Z,1009.31
2017-06-08T09:07:37.662Z,1009.39
2017-06-08T09:08:37.649Z,1009.35
2017-06-08T09:09:37.632Z,1009.39
2017-06-08T09:10:37.621Z,1009.38
2017-06-08T09:11:37.614Z,1009.36
2017-06-08T09:12:37.592Z,1009.36
2017-06-08T09:13:37.581Z,1009.31
2017-06-08T09:14:37.573Z,1009.33
2017-06-08T09:15:37.556Z,1009.31
2017-06-08T09:16:37.543Z,1009.38
2017-06-08T09:17:37.528Z,1009.33
2017-06-08T09:18:37.524Z,1009.36
2017-06-08T09:19:37.500Z,1009.29
2017-06-08T09:20:37.491Z,1009.36
2017-06-08T09:21:37.483Z,1009.32
2017-06-08T09:22:37.462Z,1009.32
2017-06-08T09:23:37.452Z,1009.26
2017-06-08T09:24:37.443Z,1009.23
2017-06-08T09:25:37.430Z,1009.22
2017-06-08T09:26:37.424Z,1009.22
2017-06-08T09:27:37.400Z,1009.17
2017-06-08T09:28:37.390Z,1009.23
2017-06-08T09:29:37.381Z,1009.15
2017-06-08T09:30:37.366Z,1009.21
2017-06-08T09:31:37.360Z,1009.15
2017-06-08T09:32:37.351Z,1009.13
2017-06-08T09:33:37.338Z,1009.06
2017-06-08T09:34:37.322Z,1009.17
2017-06-08T09:35:37.308Z,1009.07
2017-06-08T09:36:37.363Z,1009.05
2017-06-08T09:37:37.294Z,1009.09
2017-06-08T09:38:37.273Z,1009.02
2017-06-08T09:39:37.257Z,1009.08
2017-06-08T09:40:37.246Z,1009.05
2017-06-08T09:41:37.238Z,1008.99
2017-06-08T09:42:37.226Z,1009.11
2017-06-08T09:43:37.213Z,1009.15
2017-06-08T09:44:37.211Z,1009.16
2017-06-08T09:45:37.199Z,1009.11
2017-06-08T09:46:37.178Z,1009.06
2017-06-08T09:47:37.173Z,1009.14
2017-06-08T09:48:37.157Z,1009.05
2017-06-08T09:49:37.151Z,1009.09
2017-06-08T09:50:37.133Z,1008.99
2017-06-08T09:51:37.118Z,1009.08
2017-06-08T09:52:37.109Z,1009.04
2017-06-08T09:53:37.104Z,1009.04
2017-06-08T09:54:37.101Z,1008.96
2017-06-08T09:55:37.080Z,1009.02
2017-06-08T09:56:37.065Z,1009.04
2017-06-08T09:57:37.053Z,1009.08
2017-06-08T09:58:37.041Z,1009.03
2017-06-08T09:59:37.043Z,1008.93
2017-06-08T10:00:37.021Z,1008.96
2017-06-08T10:01:37.011Z,1008.94
2017-06-08T10:02:36.999Z,1009.07
2017-06-08T10:03:36.985Z,1009
2017-06-08T10:04:36.979Z,1009.1
2017-06-08T10:05:36.965Z,1009.08
2017-06-08T10:06:36.955Z,1009.01
2017-06-08T10:07:36.943Z,1008.99
2017-06-08T10:08:36.935Z,1009.05
2017-06-08T10:09:36.928Z,1009.01
2017-06-08T10:10:36.913Z,1008.98
2017-06-08T10:11:36.910Z,1008.94
2017-06-08T10:12:36.903Z,1008.95
2017-06-08T10:13:36.893Z,1008.93
2017-06-08T10:14:36.872Z,1009.02
2017-06-08T10:15:36.867Z,1008.96
2017-06-08T10:16:36.851Z,1008.97
2017-06-08T10:17:36.845Z,1009.02
2017-06-08T10:18:36.853Z,1009.01
2017-06-08T10:19:36.830Z,1009
2017-06-08T10:20:36.821Z,1009.01
2017-06-08T10:21:36.805Z,1008.96
2017-06-08T10:22:36.791Z,1008.93
2017-06-08T10:23:36.781Z,1008.92
2017-06-08T10:24:36.774Z,1008.9
2017-06-08T10:25:36.761Z,1008.98
2017-06-08T10:26:36.751Z,1008.97
2017-06-08T10:27:36.740Z,1009.08
2017-06-08T10:28:36.732Z,1009.01
2017-06-08T10:29:36.720Z,1008.98
2017-06-08T10:30:36.710Z,1009.05
2017-06-08T10:31:36.703Z,1009.02
2017-06-08T10:32:36.692Z,1008.96
2017-06-08T10:33:36.679Z,1009.02
2017-06-08T10:34:36.669Z,1009.03
2017-06-08T10:35:36.657Z,1008.98
2017-06-08T10:36:36.654Z,1009.02
2017-06-08T10:37:36.641Z,1009.02
2017-06-08T10:38:36.625Z,1009.05
2017-06-08T10:39:36.614Z,1009.11
2017-06-08T10:40:36.601Z,1009.08
2017-06-08T10:41:36.591Z,1009.07
2017-06-08T10:42:36.581Z,1009.05
2017-06-08T10:43:36.570Z,1009.08
2017-06-08T10:44:36.559Z,1009.05
2017-06-08T10:45:36.552Z,1009.04
2017-06-08T10:46:36.536Z,1009.14
2017-06-08T10:47:36.530Z,1009
2017-06-08T10:48:36.518Z,1009.02
2017-06-08T10:49:36.505Z,1009.02
2017-06-08T10:50:36.498Z,1009.06
2017-06-08T10:51:36.492Z,1009.02
2017-06-08T10:52:36.474Z,1008.98
2017-06-08T10:53:36.462Z,1009.06
2017-06-08T10:54:36.454Z,1008.92
2017-06-08T10:55:36.441Z,1008.96
2017-06-08T10:56:36.430Z,1008.94
2017-06-08T10:57:36.416Z,1008.93
2017-06-08T10:58:36.411Z,1008.91
2017-06-08T10:59:36.397Z,1009
2017-06-08T11:00:36.381Z,1009.02
2017-06-08T11:01:36.371Z,1008.93
2017-06-08T11:02:36.360Z,1009.05
2017-06-08T11:03:36.349Z,1008.96
2017-06-08T11:04:36.340Z,1009.02
2017-06-08T11:05:36.332Z,1008.99
2017-06-08T11:06:36.318Z,1009.03
2017-06-08T11:07:36.310Z,1009
2017-06-08T11:08:36.293Z,1008.98
2017-06-08T11:09:36.279Z,1008.99
2017-06-08T11:10:36.268Z,1009.13
2017-06-08T11:11:36.258Z,1008.98
2017-06-08T11:12:36.248Z,1008.91
2017-06-08T11:13:36.234Z,1008.94
2017-06-08T11:14:36.225Z,1008.88
2017-06-08T11:15:36.209Z,1008.91
2017-06-08T11:16:36.204Z,1008.86
2017-06-08T11:17:36.184Z,1008.84
2017-06-08T11:18:36.181Z,1008.84
2017-06-08T11:19:36.161Z,1008.87
2017-06-08T11:20:36.151Z,1008.87
2017-06-08T11:21:36.135Z,1008.83
2017-06-08T11:22:36.132Z,1008.87
2017-06-08T11:23:36.117Z,1008.84
2017-06-08T11:24:36.105Z,1008.9
2017-06-08T11:25:36.092Z,1008.81
2017-06-08T11:26:36.081Z,1008.8
2017-06-08T11:27:36.071Z,1008.78
2017-06-08T11:28:36.056Z,1008.78
2017-06-08T11:29:36.041Z,1008.68
2017-06-08T11:30:36.029Z,1008.73
2017-06-08T11:31:36.019Z,1008.7
2017-06-08T11:32:36.012Z,1008.7
2017-06-08T11:33:35.992Z,1008.73
2017-06-08T11:34:36.026Z,1008.76
2017-06-08T11:35:35.969Z,1008.73
2017-06-08T11:36:35.959Z,1008.71
2017-06-08T11:37:35.944Z,1008.67
2017-06-08T11:38:35.934Z,1008.7
2017-06-08T11:39:35.921Z,1008.66
2017-06-08T11:40:35.911Z,1008.64
2017-06-08T11:41:35.892Z,1008.73
2017-06-08T11:42:35.889Z,1008.59
2017-06-08T11:43:35.872Z,1008.58
2017-06-08T11:44:35.857Z,1008.57
2017-06-08T11:45:35.850Z,1008.57
2017-06-08T11:46:35.935Z,1008.52
2017-06-08T11:47:35.822Z,1008.56
2017-06-08T11:48:35.906Z,1008.54
2017-06-08T11:49:35.796Z,1008.57
2017-06-08T11:50:35.788Z,1008.52
2017-06-08T11:51:35.771Z,1008.59
2017-06-08T11:52:35.851Z,1008.57
2017-06-08T11:53:35.757Z,1008.55
2017-06-08T11:54:35.787Z,1008.53
2017-06-08T11:55:35.723Z,1008.51
2017-06-08T11:56:35.720Z,1008.46
2017-06-08T11:57:35.708Z,1008.47
2017-06-08T11:58:35.691Z,1008.4
2017-06-08T11:59:35.679Z,1008.46
2017-06-08T12:00:35.661Z,1008.45
2017-06-08T12:01:35.653Z,1008.38
2017-06-08T12:02:35.640Z,1008.4
2017-06-08T12:03:35.629Z,1008.33
2017-06-08T12:04:35.618Z,1008.32
2017-06-08T12:05:35.605Z,1008.34
2017-06-08T12:06:35.595Z,1008.31
2017-06-08T12:07:35.581Z,1008.25